createdAt,value
2022-12-03T00:00:12.086Z,27.98
2022-12-03T00:01:17.004Z,29.23
2022-12-03T00:01:49.286Z,33.33
2022-12-03T00:02:21.789Z,30.15
2022-12-03T00:02:54.429Z,31.73
2022-12-03T00:03:27.007Z,32.47
2022-12-03T00:03:59.574Z,31.75
2022-12-03T00:04:32.047Z,34.80
2022-12-03T00:05:04.819Z,33.70
2022-12-03T00:05:37.150Z,34.90
2022-12-03T00:06:09.412Z,37.30
2022-12-03T00:06:41.690Z,32.15
2022-12-03T00:07:13.993Z,35.75
2022-12-03T00:07:46.557Z,30.58
2022-12-03T00:08:18.975Z,31.73
2022-12-03T00:08:51.398Z,30.00
2022-12-03T00:09:23.895Z,32.30
2022-12-03T00:09:56.218Z,29.60
2022-12-03T00:10:28.786Z,29.63
2022-12-03T00:11:01.089Z,29.08
2022-12-03T00:11:33.613Z,28.45
2022-12-03T00:12:05.983Z,29.05
2022-12-03T00:12:38.331Z,30.48
2022-12-03T00:13:10.703Z,27.90
2022-12-03T00:13:43.164Z,31.25
2022-12-03T00:14:15.474Z,33.72
2022-12-03T00:14:47.799Z,33.00
2022-12-03T00:15:20.173Z,38.45
2022-12-03T00:15:52.782Z,43.10
2022-12-03T00:16:25.257Z,40.00
2022-12-03T00:16:58.040Z,31.15
2022-12-03T00:17:30.546Z,32.80
2022-12-03T00:18:03.059Z,32.10
2022-12-03T00:18:35.526Z,30.65
2022-12-03T00:19:07.944Z,30.73
2022-12-03T00:19:40.249Z,28.33
2022-12-03T00:20:18.106Z,27.30
2022-12-03T00:20:50.451Z,29.40
2022-12-03T00:21:24.644Z,26.98
2022-12-03T00:21:57.621Z,27.52
2022-12-03T00:22:30.142Z,28.02
2022-12-03T00:23:02.483Z,27.63
2022-12-03T00:23:40.185Z,29.95
2022-12-03T00:24:14.240Z,28.27
2022-12-03T00:24:46.537Z,28.52
2022-12-03T00:25:18.890Z,27.05
2022-12-03T00:25:51.191Z,28.83
2022-12-03T00:26:23.545Z,28.67
2022-12-03T00:26:57.236Z,29.02
2022-12-03T00:27:29.735Z,26.65
2022-12-03T00:28:02.525Z,30.08
2022-12-03T00:28:35.262Z,26.75
2022-12-03T00:29:07.811Z,27.77
2022-12-03T00:29:40.106Z,28.52
2022-12-03T00:30:12.666Z,26.65
2022-12-03T00:30:45.224Z,24.02
2022-12-03T00:31:17.880Z,28.98
2022-12-03T00:31:50.269Z,28.48
2022-12-03T00:32:23.011Z,26.48
2022-12-03T00:32:55.298Z,26.58
2022-12-03T00:33:27.579Z,26.92
2022-12-03T00:33:59.945Z,26.08
2022-12-03T00:34:32.204Z,24.42
2022-12-03T00:35:04.725Z,24.02
2022-12-03T00:35:37.045Z,26.23
2022-12-03T00:36:09.483Z,26.40
2022-12-03T00:36:42.175Z,25.90
2022-12-03T00:37:14.657Z,25.33
2022-12-03T00:37:46.953Z,26.20
2022-12-03T00:38:19.663Z,25.75
2022-12-03T00:38:52.004Z,24.15
2022-12-03T00:39:24.356Z,24.88
2022-12-03T00:39:57.597Z,24.23
2022-12-03T00:40:29.922Z,25.42
2022-12-03T00:41:02.198Z,24.33
2022-12-03T00:41:34.553Z,25.20
2022-12-03T00:42:06.842Z,22.73
2022-12-03T00:42:39.287Z,24.83
2022-12-03T00:43:11.765Z,25.83
2022-12-03T00:43:44.057Z,23.02
2022-12-03T00:44:17.675Z,26.05
2022-12-03T00:44:50.043Z,25.20
2022-12-03T00:45:22.546Z,25.40
2022-12-03T00:45:54.847Z,25.33
2022-12-03T00:46:27.273Z,24.58
2022-12-03T00:47:00.981Z,22.90
2022-12-03T00:47:33.613Z,26.02
2022-12-03T00:48:05.986Z,27.95
2022-12-03T00:48:38.544Z,26.90
2022-12-03T00:49:11.023Z,26.55
2022-12-03T00:49:44.221Z,26.08
2022-12-03T00:50:16.566Z,30.08
2022-12-03T00:50:49.292Z,27.38
2022-12-03T00:51:21.879Z,25.75
2022-12-03T00:51:54.427Z,27.17
2022-12-03T00:52:26.991Z,25.73
2022-12-03T00:52:59.359Z,25.00
2022-12-03T00:53:31.724Z,25.00
2022-12-03T00:54:04.085Z,27.90
2022-12-03T00:54:36.540Z,27.80
2022-12-03T00:55:09.492Z,30.73
2022-12-03T00:55:41.756Z,26.50
2022-12-03T00:56:14.028Z,29.38
2022-12-03T00:56:46.440Z,28.33
2022-12-03T00:57:18.899Z,26.60
2022-12-03T00:57:51.356Z,27.83
2022-12-03T00:58:23.767Z,29.55
2022-12-03T00:58:56.205Z,30.20
2022-12-03T00:59:28.637Z,29.08
2022-12-03T01:00:00.960Z,28.00
2022-12-03T01:00:33.227Z,31.38
2022-12-03T01:01:05.676Z,35.38
2022-12-03T01:01:37.978Z,33.30
2022-12-03T01:02:10.629Z,36.33
2022-12-03T01:02:43.151Z,36.13
2022-12-03T01:03:15.415Z,33.20
2022-12-03T01:03:47.698Z,34.17
2022-12-03T01:04:20.742Z,32.65
2022-12-03T01:04:53.721Z,34.10
2022-12-03T01:05:26.318Z,31.70
2022-12-03T01:05:58.597Z,31.52
2022-12-03T01:06:31.121Z,28.88
2022-12-03T01:07:03.515Z,28.27
2022-12-03T01:07:36.535Z,28.60
2022-12-03T01:08:09.113Z,31.85
2022-12-03T01:08:41.630Z,32.75
2022-12-03T01:09:13.909Z,29.17
2022-12-03T01:09:46.540Z,33.25
2022-12-03T01:10:19.126Z,34.00
2022-12-03T01:10:51.420Z,34.97
2022-12-03T01:11:38.783Z,34.60
2022-12-03T01:12:12.289Z,40.80
2022-12-03T01:12:44.671Z,34.72
2022-12-03T01:13:16.956Z,36.45
2022-12-03T01:13:49.359Z,33.17
2022-12-03T01:14:21.896Z,39.03
2022-12-03T01:14:54.668Z,41.08
2022-12-03T01:15:27.342Z,40.05
2022-12-03T01:15:59.955Z,39.97
2022-12-03T01:16:32.372Z,31.90
2022-12-03T01:17:04.978Z,31.15
2022-12-03T01:17:37.714Z,31.55
2022-12-03T01:18:09.914Z,31.85
2022-12-03T01:18:42.202Z,32.53
2022-12-03T01:19:17.658Z,31.70
2022-12-03T01:19:52.658Z,33.38
2022-12-03T01:20:25.128Z,33.35
2022-12-03T01:20:57.619Z,36.53
2022-12-03T01:21:29.913Z,54.97
2022-12-03T01:22:02.555Z,54.58
2022-12-03T01:22:35.149Z,50.65
2022-12-03T01:23:07.475Z,43.05
2022-12-03T01:23:39.899Z,40.17
2022-12-03T01:24:12.486Z,36.67
2022-12-03T01:24:44.792Z,36.13
2022-12-03T01:25:17.141Z,36.15
2022-12-03T01:25:49.599Z,36.33
2022-12-03T01:26:21.926Z,34.88
2022-12-03T01:26:56.250Z,36.67
2022-12-03T01:27:28.508Z,31.27
2022-12-03T01:28:01.170Z,35.70
2022-12-03T01:28:33.976Z,34.83
2022-12-03T01:29:06.769Z,42.38
2022-12-03T01:29:39.080Z,38.17
2022-12-03T01:30:12.130Z,33.70
2022-12-03T01:31:03.349Z,31.65
2022-12-03T01:31:54.259Z,28.77
2022-12-03T01:32:26.817Z,27.83
2022-12-03T01:32:59.868Z,29.10
2022-12-03T01:33:32.321Z,32.13
2022-12-03T01:34:04.780Z,31.05
2022-12-03T01:34:37.044Z,31.17
2022-12-03T01:35:09.577Z,29.13
2022-12-03T01:35:41.932Z,33.55
2022-12-03T01:36:14.347Z,32.67
2022-12-03T01:36:46.759Z,30.52
2022-12-03T01:37:19.659Z,31.13
2022-12-03T01:37:52.109Z,31.42
2022-12-03T01:38:24.418Z,30.58
2022-12-03T01:38:56.849Z,33.88
2022-12-03T01:39:29.054Z,30.38
2022-12-03T01:40:01.234Z,31.48
2022-12-03T01:40:33.586Z,31.17
2022-12-03T01:41:11.352Z,30.65
2022-12-03T01:41:44.832Z,31.42
2022-12-03T01:42:37.544Z,32.00
2022-12-03T01:43:10.104Z,31.75
2022-12-03T01:43:42.593Z,32.60
2022-12-03T01:44:21.247Z,29.65
2022-12-03T01:44:56.176Z,29.13
2022-12-03T01:45:28.673Z,29.17
2022-12-03T01:46:01.309Z,30.27
2022-12-03T01:46:40.567Z,29.40
2022-12-03T01:47:14.866Z,29.55
2022-12-03T01:47:47.436Z,28.95
2022-12-03T01:48:19.723Z,29.50
2022-12-03T01:48:53.329Z,30.27
2022-12-03T01:49:27.557Z,29.98
2022-12-03T01:50:01.574Z,26.92
2022-12-03T01:50:34.518Z,27.63
2022-12-03T01:51:07.443Z,30.67
2022-12-03T01:51:39.991Z,30.05
2022-12-03T01:52:19.488Z,30.65
2022-12-03T01:52:53.108Z,30.33
2022-12-03T01:53:25.413Z,29.20
2022-12-03T01:53:59.022Z,30.95
2022-12-03T01:54:36.709Z,36.75
2022-12-03T01:55:13.845Z,30.63
2022-12-03T01:55:48.828Z,31.70
2022-12-03T01:56:21.623Z,29.73
2022-12-03T01:56:54.859Z,29.33
2022-12-03T01:57:28.721Z,28.17
2022-12-03T01:58:02.112Z,31.70
2022-12-03T01:58:34.687Z,30.00
2022-12-03T01:59:07.034Z,30.65
2022-12-03T01:59:39.735Z,31.88
2022-12-03T02:00:14.793Z,31.33
2022-12-03T02:00:47.226Z,28.48
2022-12-03T02:01:19.582Z,26.42
2022-12-03T02:01:51.964Z,25.05
2022-12-03T02:02:27.301Z,27.88
2022-12-03T02:03:04.260Z,26.95
2022-12-03T02:03:36.655Z,26.58
2022-12-03T02:04:11.500Z,27.70
2022-12-03T02:04:43.949Z,29.38
2022-12-03T02:05:20.611Z,29.80
2022-12-03T02:05:53.342Z,26.10
2022-12-03T02:06:28.145Z,30.17
2022-12-03T02:07:16.254Z,25.60
2022-12-03T02:07:48.724Z,20.55
2022-12-03T02:08:31.293Z,27.23
2022-12-03T02:09:03.707Z,25.80
2022-12-03T02:09:36.232Z,25.23
2022-12-03T02:10:08.720Z,20.48
2022-12-03T02:10:41.214Z,23.25
2022-12-03T02:11:16.110Z,24.33
2022-12-03T02:11:49.951Z,23.75
2022-12-03T02:12:29.318Z,24.13
2022-12-03T02:13:04.045Z,24.58
2022-12-03T02:13:36.551Z,26.35
2022-12-03T02:14:14.109Z,24.98
2022-12-03T02:14:46.703Z,26.00
2022-12-03T02:15:19.022Z,25.90
2022-12-03T02:15:51.851Z,25.65
2022-12-03T02:16:24.420Z,22.02
2022-12-03T02:16:56.945Z,22.38
2022-12-03T02:17:29.466Z,26.48
2022-12-03T02:18:02.057Z,24.83
2022-12-03T02:18:34.417Z,23.75
2022-12-03T02:19:10.917Z,20.75
2022-12-03T02:19:43.217Z,23.05
2022-12-03T02:20:15.747Z,20.17
2022-12-03T02:20:59.044Z,22.63
2022-12-03T02:21:31.312Z,24.58
2022-12-03T02:22:12.444Z,20.65
2022-12-03T02:22:48.705Z,16.80
2022-12-03T02:23:32.455Z,15.90
2022-12-03T02:24:10.636Z,16.20
2022-12-03T02:24:55.369Z,16.42
2022-12-03T02:25:32.457Z,12.18
2022-12-03T02:26:04.884Z,14.15
2022-12-03T02:26:37.170Z,14.13
2022-12-03T02:27:09.443Z,14.27
2022-12-03T02:27:42.221Z,16.35
2022-12-03T02:28:14.682Z,16.10
2022-12-03T02:28:47.201Z,18.65
2022-12-03T02:29:19.925Z,16.15
2022-12-03T02:29:52.428Z,12.07
2022-12-03T02:30:25.896Z,13.15
2022-12-03T02:30:58.410Z,15.32
2022-12-03T02:31:31.184Z,9.50
2022-12-03T02:32:03.908Z,13.90
2022-12-03T02:32:36.915Z,13.98
2022-12-03T02:33:09.237Z,14.75
2022-12-03T02:33:41.787Z,12.93
2022-12-03T02:34:33.697Z,10.27
2022-12-03T02:35:06.634Z,13.02
2022-12-03T02:35:39.867Z,16.38
2022-12-03T02:36:12.753Z,15.60
2022-12-03T02:36:45.252Z,16.95
2022-12-03T02:37:20.433Z,17.23
2022-12-03T02:37:55.167Z,16.55
2022-12-03T02:38:29.503Z,19.95
2022-12-03T02:39:02.288Z,17.75
2022-12-03T02:39:35.598Z,22.45
2022-12-03T02:40:10.400Z,20.55
2022-12-03T02:40:43.681Z,16.40
2022-12-03T02:41:37.192Z,16.77
2022-12-03T02:42:29.219Z,16.42
2022-12-03T02:43:02.746Z,16.83
2022-12-03T02:43:35.148Z,17.50
2022-12-03T02:44:08.454Z,15.40
2022-12-03T02:44:40.885Z,18.35
2022-12-03T02:45:18.432Z,18.00
2022-12-03T02:45:52.472Z,19.20
2022-12-03T02:46:24.957Z,17.60
2022-12-03T02:46:57.515Z,14.18
2022-12-03T02:47:31.155Z,15.68
2022-12-03T02:48:08.757Z,16.27
2022-12-03T02:48:42.013Z,15.98
2022-12-03T02:49:14.676Z,14.77
2022-12-03T02:49:47.083Z,16.05
2022-12-03T02:50:22.078Z,13.93
2022-12-03T02:50:59.499Z,14.55
2022-12-03T02:51:32.993Z,14.65
2022-12-03T02:52:05.474Z,14.93
2022-12-03T02:52:38.133Z,14.20
2022-12-03T02:53:14.350Z,13.02
2022-12-03T02:53:48.459Z,14.60
2022-12-03T02:54:22.181Z,14.43
2022-12-03T02:54:54.808Z,9.20
2022-12-03T02:55:31.968Z,14.75
2022-12-03T02:56:09.137Z,14.32
2022-12-03T02:56:41.470Z,11.55
2022-12-03T02:57:13.727Z,10.43
2022-12-03T02:57:48.491Z,9.43
2022-12-03T02:58:21.046Z,14.93
2022-12-03T02:58:55.301Z,14.30
2022-12-03T02:59:27.666Z,15.65
2022-12-03T03:00:00.193Z,14.93
2022-12-03T03:00:33.078Z,16.50
2022-12-03T03:01:05.996Z,15.90
2022-12-03T03:01:38.705Z,11.82
2022-12-03T03:02:12.585Z,12.27
2022-12-03T03:02:45.693Z,15.13
2022-12-03T03:03:18.656Z,15.70
2022-12-03T03:03:51.445Z,16.75
2022-12-03T03:04:25.226Z,15.48
2022-12-03T03:04:57.685Z,13.95
2022-12-03T03:05:30.084Z,13.68
2022-12-03T03:06:03.154Z,12.75
2022-12-03T03:06:35.730Z,15.80
2022-12-03T03:07:08.590Z,15.02
2022-12-03T03:07:41.870Z,13.27
2022-12-03T03:08:14.914Z,16.90
2022-12-03T03:08:48.414Z,14.07
2022-12-03T03:09:20.914Z,15.52
2022-12-03T03:09:53.288Z,15.82
2022-12-03T03:10:25.791Z,10.38
2022-12-03T03:11:00.073Z,13.75
2022-12-03T03:11:32.426Z,13.45
2022-12-03T03:12:05.192Z,16.67
2022-12-03T03:12:39.452Z,15.35
2022-12-03T03:13:13.483Z,15.23
2022-12-03T03:13:46.132Z,13.60
2022-12-03T03:14:18.444Z,9.10
2022-12-03T03:14:51.064Z,14.35
2022-12-03T03:15:25.723Z,12.90
2022-12-03T03:15:58.494Z,14.77
2022-12-03T03:16:30.993Z,14.35
2022-12-03T03:17:03.924Z,16.58
2022-12-03T03:17:36.466Z,16.50
2022-12-03T03:18:09.603Z,12.90
2022-12-03T03:18:42.256Z,15.85
2022-12-03T03:19:14.707Z,14.50
2022-12-03T03:19:46.971Z,13.30
2022-12-03T03:20:19.343Z,14.40
2022-12-03T03:20:51.822Z,14.13
2022-12-03T03:21:24.067Z,12.30
2022-12-03T03:21:57.529Z,13.77
2022-12-03T03:22:32.243Z,13.77
2022-12-03T03:23:13.859Z,12.60
2022-12-03T03:23:46.306Z,12.00
2022-12-03T03:24:18.766Z,13.77
2022-12-03T03:24:53.074Z,10.82
2022-12-03T03:25:25.691Z,12.88
2022-12-03T03:26:05.782Z,14.30
2022-12-03T03:26:38.286Z,12.48
2022-12-03T03:27:10.936Z,15.27
2022-12-03T03:27:43.621Z,13.23
2022-12-03T03:28:16.757Z,14.95
2022-12-03T03:28:50.061Z,14.98
2022-12-03T03:29:22.753Z,12.25
2022-12-03T03:29:55.552Z,13.20
2022-12-03T03:30:28.167Z,14.45
2022-12-03T03:31:02.032Z,13.63
2022-12-03T03:31:35.577Z,12.25
2022-12-03T03:32:07.981Z,13.52
2022-12-03T03:32:41.016Z,10.40
2022-12-03T03:33:13.831Z,10.95
2022-12-03T03:33:47.205Z,13.25
2022-12-03T03:34:20.456Z,12.15
2022-12-03T03:34:53.276Z,8.38
2022-12-03T03:35:26.200Z,13.32
2022-12-03T03:36:00.702Z,14.52
2022-12-03T03:36:33.231Z,12.25
2022-12-03T03:37:05.558Z,11.88
2022-12-03T03:37:38.421Z,15.10
2022-12-03T03:38:11.048Z,11.68
2022-12-03T03:38:43.310Z,12.00
2022-12-03T03:39:15.640Z,13.85
2022-12-03T03:39:48.079Z,13.70
2022-12-03T03:40:21.321Z,13.32
2022-12-03T03:40:53.674Z,12.00
2022-12-03T03:41:26.740Z,14.35
2022-12-03T03:41:59.932Z,11.73
2022-12-03T03:42:32.292Z,11.25
2022-12-03T03:43:05.194Z,11.80
2022-12-03T03:43:38.369Z,13.60
2022-12-03T03:44:10.902Z,14.05
2022-12-03T03:44:43.303Z,14.48
2022-12-03T03:45:15.708Z,14.18
2022-12-03T03:45:48.656Z,12.13
2022-12-03T03:46:21.606Z,14.82
2022-12-03T03:46:54.696Z,14.80
2022-12-03T03:47:27.101Z,14.98
2022-12-03T03:48:00.143Z,12.35
2022-12-03T03:48:34.744Z,15.02
2022-12-03T03:49:07.266Z,14.30
2022-12-03T03:49:39.958Z,10.57
2022-12-03T03:50:12.865Z,14.93
2022-12-03T03:50:45.629Z,14.20
2022-12-03T03:51:19.052Z,12.88
2022-12-03T03:51:51.415Z,15.63
2022-12-03T03:52:23.872Z,15.05
2022-12-03T03:52:56.535Z,13.32
2022-12-03T03:53:29.508Z,16.63
2022-12-03T03:54:03.041Z,15.00
2022-12-03T03:54:35.547Z,14.60
2022-12-03T03:55:08.485Z,15.07
2022-12-03T03:55:41.152Z,13.27
2022-12-03T03:56:14.367Z,15.10
2022-12-03T03:56:46.798Z,13.27
2022-12-03T03:57:19.211Z,12.73
2022-12-03T03:57:51.606Z,13.07
2022-12-03T03:58:23.968Z,14.95
2022-12-03T03:58:56.640Z,13.73
2022-12-03T03:59:29.409Z,13.90
2022-12-03T04:00:01.757Z,13.98
2022-12-03T04:00:38.286Z,13.15
2022-12-03T04:01:12.006Z,10.38
2022-12-03T04:01:44.852Z,12.80
2022-12-03T04:02:21.186Z,12.88
2022-12-03T04:02:54.298Z,13.18
2022-12-03T04:03:27.401Z,13.57
2022-12-03T04:04:02.567Z,8.43
2022-12-03T04:04:36.178Z,12.23
2022-12-03T04:05:11.504Z,9.65
2022-12-03T04:05:45.076Z,8.88
2022-12-03T04:06:17.382Z,10.95
2022-12-03T04:06:49.841Z,10.70
2022-12-03T04:07:22.114Z,11.70
2022-12-03T04:07:54.706Z,11.57
2022-12-03T04:08:26.972Z,9.38
2022-12-03T04:08:59.238Z,12.43
2022-12-03T04:09:31.577Z,11.05
2022-12-03T04:10:23.978Z,11.93
2022-12-03T04:11:31.624Z,9.68
2022-12-03T04:12:22.766Z,8.77
2022-12-03T04:12:58.001Z,8.07
2022-12-03T04:13:30.356Z,10.18
2022-12-03T04:14:02.791Z,8.80
2022-12-03T04:14:35.043Z,10.82
2022-12-03T04:15:08.296Z,7.43
2022-12-03T04:15:40.693Z,9.52
2022-12-03T04:16:13.005Z,10.18
2022-12-03T04:16:45.330Z,9.00
2022-12-03T04:17:17.683Z,9.27
2022-12-03T04:18:09.941Z,9.45
2022-12-03T04:18:44.838Z,8.82
2022-12-03T04:19:17.376Z,8.63
2022-12-03T04:19:49.851Z,7.22
2022-12-03T04:20:22.101Z,9.80
2022-12-03T04:21:14.323Z,10.55
2022-12-03T04:22:05.415Z,9.52
2022-12-03T04:22:40.787Z,9.70
2022-12-03T04:23:13.279Z,10.30
2022-12-03T04:23:45.579Z,9.95
2022-12-03T04:24:17.915Z,9.68
2022-12-03T04:24:50.178Z,6.75
2022-12-03T04:25:41.042Z,10.40
2022-12-03T04:26:32.305Z,8.32
2022-12-03T04:27:22.967Z,9.20
2022-12-03T04:28:13.955Z,9.30
2022-12-03T04:28:51.961Z,6.88
2022-12-03T04:29:24.303Z,10.30
2022-12-03T04:29:56.575Z,9.93
2022-12-03T04:30:29.290Z,9.48
2022-12-03T04:31:21.746Z,8.63
2022-12-03T04:32:12.889Z,13.90
2022-12-03T04:33:03.919Z,25.05
2022-12-03T04:33:54.666Z,16.20
2022-12-03T04:34:45.420Z,13.40
2022-12-03T04:35:36.403Z,7.75
2022-12-03T04:36:08.948Z,8.10
2022-12-03T04:36:41.261Z,14.32
2022-12-03T04:37:13.522Z,10.52
2022-12-03T04:37:45.766Z,9.52
2022-12-03T04:38:19.413Z,10.40
2022-12-03T04:38:51.631Z,8.82
2022-12-03T04:39:23.945Z,9.25
2022-12-03T04:39:56.253Z,6.72
2022-12-03T04:40:47.425Z,8.85
2022-12-03T04:41:19.838Z,5.93
2022-12-03T04:41:52.120Z,12.13
2022-12-03T04:42:24.468Z,14.43
2022-12-03T04:42:56.915Z,14.20
2022-12-03T04:43:29.874Z,16.38
2022-12-03T04:44:20.610Z,16.55
2022-12-03T04:44:53.224Z,12.35
2022-12-03T04:45:25.677Z,15.70
2022-12-03T04:45:58.173Z,28.52
2022-12-03T04:46:30.756Z,31.65
2022-12-03T04:47:03.248Z,32.35
2022-12-03T04:47:39.905Z,18.52
2022-12-03T04:48:12.400Z,18.02
2022-12-03T04:48:44.863Z,14.23
2022-12-03T04:49:17.165Z,19.42
2022-12-03T04:49:51.355Z,23.10
2022-12-03T04:50:23.820Z,10.93
2022-12-03T04:50:56.166Z,9.15
2022-12-03T04:51:28.601Z,7.80
2022-12-03T04:52:01.146Z,23.02
2022-12-03T04:52:33.386Z,18.65
2022-12-03T04:53:05.759Z,9.65
2022-12-03T04:53:43.260Z,17.23
2022-12-03T04:54:19.052Z,14.52
2022-12-03T04:54:51.703Z,15.45
2022-12-03T04:55:24.288Z,13.02
2022-12-03T04:55:56.659Z,19.92
2022-12-03T04:56:28.980Z,20.63
2022-12-03T04:57:01.439Z,21.10
2022-12-03T04:57:33.638Z,20.60
2022-12-03T04:58:05.941Z,20.13
2022-12-03T04:58:38.299Z,13.38
2022-12-03T04:59:15.784Z,13.25
2022-12-03T04:59:48.767Z,14.95
2022-12-03T05:00:21.287Z,13.57
2022-12-03T05:00:53.658Z,13.60
2022-12-03T05:01:27.385Z,11.63
2022-12-03T05:01:59.921Z,12.27
2022-12-03T05:02:32.305Z,10.50
2022-12-03T05:03:05.017Z,11.25
2022-12-03T05:03:37.537Z,13.05
2022-12-03T05:04:10.235Z,10.32
2022-12-03T05:04:42.640Z,11.77
2022-12-03T05:05:16.296Z,10.32
2022-12-03T05:05:48.802Z,9.30
2022-12-03T05:06:21.329Z,12.23
2022-12-03T05:06:53.860Z,10.13
2022-12-03T05:07:26.449Z,9.38
2022-12-03T05:07:58.856Z,11.32
2022-12-03T05:08:31.283Z,16.40
2022-12-03T05:09:04.100Z,11.40
2022-12-03T05:09:36.399Z,13.82
2022-12-03T05:10:09.127Z,16.15
2022-12-03T05:10:41.373Z,17.20
2022-12-03T05:11:13.866Z,16.05
2022-12-03T05:11:46.375Z,18.25
2022-12-03T05:12:18.817Z,15.68
2022-12-03T05:12:50.993Z,13.40
2022-12-03T05:13:23.184Z,12.88
2022-12-03T05:13:55.511Z,13.35
2022-12-03T05:14:28.179Z,14.60
2022-12-03T05:15:00.678Z,9.02
2022-12-03T05:15:33.119Z,10.80
2022-12-03T05:16:05.636Z,12.57
2022-12-03T05:16:38.600Z,12.65
2022-12-03T05:17:11.374Z,13.10
2022-12-03T05:17:43.675Z,10.90
2022-12-03T05:18:16.193Z,11.75
2022-12-03T05:18:48.745Z,14.52
2022-12-03T05:19:21.305Z,14.45
2022-12-03T05:20:28.346Z,17.50
2022-12-03T05:21:01.100Z,10.20
2022-12-03T05:21:33.823Z,15.93
2022-12-03T05:22:06.177Z,12.80
2022-12-03T05:22:38.694Z,12.65
2022-12-03T05:23:12.289Z,13.15
2022-12-03T05:23:44.812Z,14.13
2022-12-03T05:24:17.527Z,13.18
2022-12-03T05:24:50.088Z,11.90
2022-12-03T05:25:22.422Z,11.57
2022-12-03T05:25:55.040Z,11.05
2022-12-03T05:26:27.477Z,12.43
2022-12-03T05:27:00.162Z,11.15
2022-12-03T05:27:32.490Z,13.63
2022-12-03T05:28:04.979Z,14.23
2022-12-03T05:28:37.461Z,12.57
2022-12-03T05:29:09.924Z,15.70
2022-12-03T05:29:42.626Z,9.32
2022-12-03T05:30:15.323Z,16.35
2022-12-03T05:30:47.867Z,14.70
2022-12-03T05:31:20.414Z,17.30
2022-12-03T05:31:52.939Z,17.05
2022-12-03T05:32:25.446Z,14.20
2022-12-03T05:32:57.996Z,18.90
2022-12-03T05:33:30.428Z,15.35
2022-12-03T05:34:02.796Z,13.23
2022-12-03T05:34:35.372Z,9.82
2022-12-03T05:35:07.853Z,14.95
2022-12-03T05:35:40.325Z,9.98
2022-12-03T05:36:12.831Z,12.27
2022-12-03T05:36:45.296Z,12.52
2022-12-03T05:37:17.589Z,11.68
2022-12-03T05:37:49.838Z,16.35
2022-12-03T05:38:22.148Z,13.02
2022-12-03T05:38:54.447Z,14.52
2022-12-03T05:39:26.838Z,13.15
2022-12-03T05:39:59.114Z,13.60
2022-12-03T05:40:31.355Z,12.27
2022-12-03T05:41:23.640Z,15.75
2022-12-03T05:42:35.043Z,15.27
2022-12-03T05:43:07.518Z,12.02
2022-12-03T05:43:40.117Z,11.73
2022-12-03T05:44:17.395Z,10.55
2022-12-03T05:44:53.003Z,12.75
2022-12-03T05:45:27.141Z,10.63
2022-12-03T05:45:59.560Z,14.15
2022-12-03T05:46:33.108Z,14.65
2022-12-03T05:47:05.494Z,17.63
2022-12-03T05:47:38.269Z,13.32
2022-12-03T05:48:11.931Z,16.30
2022-12-03T05:48:44.584Z,10.13
2022-12-03T05:49:17.019Z,16.15
2022-12-03T05:49:49.523Z,14.82
2022-12-03T05:50:23.296Z,13.63
2022-12-03T05:50:55.681Z,16.90
2022-12-03T05:51:27.901Z,20.63
2022-12-03T05:52:02.645Z,20.63
2022-12-03T05:52:34.888Z,23.95
2022-12-03T05:53:07.280Z,21.80
2022-12-03T05:53:39.505Z,18.30
2022-12-03T05:54:11.811Z,15.00
2022-12-03T05:54:44.122Z,12.52
2022-12-03T05:55:16.571Z,14.70
2022-12-03T05:55:48.753Z,14.90
2022-12-03T05:56:21.058Z,15.57
2022-12-03T05:56:53.638Z,13.45
2022-12-03T05:57:26.408Z,20.05
2022-12-03T05:57:58.769Z,27.02
2022-12-03T05:58:31.031Z,12.75
2022-12-03T05:59:03.565Z,18.95
2022-12-03T05:59:36.298Z,20.85
2022-12-03T06:00:12.861Z,30.52
2022-12-03T06:00:45.139Z,24.98
2022-12-03T06:01:18.074Z,24.88
2022-12-03T06:01:51.148Z,37.72
2022-12-03T06:02:23.669Z,25.85
2022-12-03T06:02:56.621Z,26.45
2022-12-03T06:03:29.343Z,20.85
2022-12-03T06:04:01.928Z,16.20
2022-12-03T06:04:34.230Z,20.55
2022-12-03T06:05:07.264Z,13.38
2022-12-03T06:05:39.843Z,15.63
2022-12-03T06:06:12.271Z,15.90
2022-12-03T06:06:44.597Z,16.55
2022-12-03T06:07:17.960Z,16.45
2022-12-03T06:07:51.357Z,18.02
2022-12-03T06:08:23.915Z,16.33
2022-12-03T06:08:56.347Z,22.77
2022-12-03T06:09:28.680Z,22.25
2022-12-03T06:10:00.987Z,28.80
2022-12-03T06:10:33.301Z,23.23
2022-12-03T06:11:05.791Z,18.23
2022-12-03T06:11:38.292Z,19.88
2022-12-03T06:12:10.564Z,16.95
2022-12-03T06:12:42.997Z,16.20
2022-12-03T06:13:15.326Z,18.55
2022-12-03T06:13:47.883Z,18.25
2022-12-03T06:14:21.010Z,16.73
2022-12-03T06:14:55.348Z,16.33
2022-12-03T06:15:28.086Z,13.90
2022-12-03T06:16:00.473Z,12.52
2022-12-03T06:16:33.833Z,13.68
2022-12-03T06:17:06.151Z,13.82
2022-12-03T06:17:38.728Z,16.17
2022-12-03T06:18:11.299Z,13.73
2022-12-03T06:18:43.605Z,15.63
2022-12-03T06:19:15.890Z,11.68
2022-12-03T06:19:48.147Z,11.15
2022-12-03T06:20:20.688Z,13.52
2022-12-03T06:20:52.961Z,11.43
2022-12-03T06:21:25.258Z,13.10
2022-12-03T06:21:57.615Z,14.27
2022-12-03T06:22:30.459Z,10.63
2022-12-03T06:23:03.167Z,11.07
2022-12-03T06:23:36.485Z,10.43
2022-12-03T06:24:08.966Z,12.93
2022-12-03T06:24:41.201Z,12.73
2022-12-03T06:25:13.807Z,12.57
2022-12-03T06:25:46.222Z,14.45
2022-12-03T06:26:18.964Z,10.30
2022-12-03T06:26:51.338Z,14.85
2022-12-03T06:27:24.103Z,9.70
2022-12-03T06:27:56.414Z,13.40
2022-12-03T06:28:28.838Z,16.50
2022-12-03T06:29:01.093Z,15.63
2022-12-03T06:29:33.508Z,15.82
2022-12-03T06:30:06.490Z,16.92
2022-12-03T06:30:38.684Z,12.18
2022-12-03T06:31:10.998Z,17.30
2022-12-03T06:31:43.350Z,14.95
2022-12-03T06:32:15.622Z,17.08
2022-12-03T06:32:47.997Z,17.58
2022-12-03T06:33:20.450Z,11.00
2022-12-03T06:33:52.739Z,10.85
2022-12-03T06:34:25.197Z,14.27
2022-12-03T06:34:57.543Z,19.05
2022-12-03T06:35:29.987Z,16.33
2022-12-03T06:36:02.237Z,12.70
2022-12-03T06:36:34.690Z,14.45
2022-12-03T06:37:07.080Z,14.82
2022-12-03T06:37:39.578Z,12.68
2022-12-03T06:38:11.884Z,13.63
2022-12-03T06:38:44.169Z,11.00
2022-12-03T06:39:16.843Z,14.70
2022-12-03T06:39:49.030Z,10.85
2022-12-03T06:40:21.267Z,13.80
2022-12-03T06:40:53.490Z,10.27
2022-12-03T06:41:25.787Z,11.80
2022-12-03T06:41:57.985Z,14.60
2022-12-03T06:42:30.231Z,13.57
2022-12-03T06:43:02.402Z,13.85
2022-12-03T06:43:35.491Z,14.07
2022-12-03T06:44:07.685Z,12.68
2022-12-03T06:44:39.942Z,11.15
2022-12-03T06:45:12.405Z,13.38
2022-12-03T06:45:47.877Z,13.40
2022-12-03T06:46:20.607Z,13.45
2022-12-03T06:46:53.289Z,13.32
2022-12-03T06:47:25.633Z,13.10
2022-12-03T06:47:58.225Z,13.07
2022-12-03T06:48:30.558Z,14.40
2022-12-03T06:49:03.198Z,12.70
2022-12-03T06:49:35.651Z,12.95
2022-12-03T06:50:08.720Z,13.10
2022-12-03T06:50:41.033Z,10.23
2022-12-03T06:51:13.596Z,12.82
2022-12-03T06:51:45.904Z,14.30
2022-12-03T06:52:18.151Z,12.73
2022-12-03T06:52:50.465Z,12.25
2022-12-03T06:53:22.935Z,11.85
2022-12-03T06:53:55.410Z,10.48
2022-12-03T06:54:27.775Z,13.73
2022-12-03T06:55:00.286Z,12.10
2022-12-03T06:55:32.568Z,12.00
2022-12-03T06:56:05.024Z,15.07
2022-12-03T06:56:43.594Z,13.00
2022-12-03T06:57:17.841Z,10.40
2022-12-03T06:57:50.170Z,11.95
2022-12-03T06:58:22.567Z,12.23
2022-12-03T06:58:54.778Z,13.50
2022-12-03T06:59:26.977Z,11.57
2022-12-03T06:59:59.704Z,13.68
2022-12-03T07:00:31.963Z,14.25
2022-12-03T07:01:04.179Z,16.60
2022-12-03T07:01:36.456Z,14.05
2022-12-03T07:02:09.587Z,15.40
2022-12-03T07:02:42.076Z,14.10
2022-12-03T07:03:14.365Z,15.00
2022-12-03T07:03:46.737Z,15.18
2022-12-03T07:04:19.500Z,13.73
2022-12-03T07:04:51.782Z,14.77
2022-12-03T07:05:24.206Z,14.65
2022-12-03T07:05:56.461Z,15.05
2022-12-03T07:06:29.398Z,14.20
2022-12-03T07:07:01.914Z,15.80
2022-12-03T07:07:34.418Z,15.55
2022-12-03T07:08:06.925Z,12.85
2022-12-03T07:08:39.300Z,14.63
2022-12-03T07:09:11.491Z,18.58
2022-12-03T07:09:43.772Z,18.05
2022-12-03T07:10:16.000Z,16.85
2022-12-03T07:10:48.307Z,16.20
2022-12-03T07:11:32.786Z,17.50
2022-12-03T07:12:05.351Z,13.35
2022-12-03T07:12:38.077Z,11.30
2022-12-03T07:13:10.549Z,16.10
2022-12-03T07:13:42.858Z,12.45
2022-12-03T07:14:15.262Z,14.95
2022-12-03T07:14:47.582Z,13.48
2022-12-03T07:15:19.845Z,13.43
2022-12-03T07:15:52.585Z,13.30
2022-12-03T07:16:24.977Z,12.93